Flight Track Log - Related Links

Times and Time Zones

All times are in EDT time to prevent confusion due to time zone crossing. See the SWA2182 flight status page for this flight to view local times or setup timezone preferences in your user account.

Time Position Orientation Groundspeed Altitude Reporting Facility
EDT Latitude Longitude Course Direction KTS MPH feet Rate Location/Type
Mon 09:09:33 AM 38.7333 -121.6000 144° Southeast 145 167 1,800  Level Northern Cal TRACON
Mon 09:11:48 AM 38.6281 -121.5022 144° Southeast 267 307 6,600 2,296 Climbing Oakland Center
Mon 09:12:49 AM 38.5856 -121.4242 125° Southeast 299 344 9,300 3,025 Climbing Oakland Center
Mon 09:13:49 AM 38.5286 -121.3003 120° Southeast 344 396 12,700 3,273 Climbing Oakland Center
Mon 09:14:50 AM 38.4725 -121.1847 122° Southeast 378 435 15,900 3,223 Climbing Oakland Center
Mon 09:15:50 AM 38.4158 -121.0658 121° Southeast 391 450 19,200 3,050 Climbing Oakland Center
Mon 09:16:50 AM 38.3564 -120.9400 121° Southeast 409 471 22,000 2,678 Climbing Oakland Center
Mon 09:17:51 AM 38.2942 -120.8119 122° Southeast 423 487 24,600 2,380 Climbing Oakland Center
Mon 09:18:51 AM 38.2278 -120.6811 123° Southeast 436 502 26,800 2,083 Climbing Oakland Center
Mon 09:19:52 AM 38.1286 -120.5806 141° Southeast 451 519 28,800 1,835 Climbing Oakland Center
Mon 09:20:52 AM 38.0264 -120.4786 142° Southeast 462 532 30,500 1,884 Climbing Oakland Center
Mon 09:21:53 AM 37.9219 -120.3778 143° Southeast 471 542 32,600 2,033 Climbing Oakland Center
Mon 09:22:53 AM 37.8039 -120.3119 156° South 463 533 34,600 1,736 Climbing Oakland Center
Mon 09:23:54 AM 37.6850 -120.2517 158° South 459 528 36,100 1,537 Climbing Oakland Center
Mon 09:24:54 AM 37.5669 -120.1911 158° South 458 527 37,700 1,388 Climbing Oakland Center
Mon 09:25:55 AM 37.4478 -120.1347 159° South 459 528 38,900 639 Climbing Oakland Center
Mon 09:26:56 AM 37.3281 -120.0753 158° South 459 528 39,000 50 Climbing Oakland Center
Mon 09:27:56 AM 37.2106 -120.0156 158° South 456 525 39,000  Level Oakland Center
Mon 09:28:57 AM 37.0931 -119.9558 158° South 454 522 39,000  Level Oakland Center
Mon 09:29:57 AM 36.9850 -119.9014 158° South 451 519 39,000  Level Oakland Center
Mon 09:30:58 AM 36.8672 -119.8419 158° South 456 525 39,000  Level Oakland Center
Mon 09:31:59 AM 36.7517 -119.7828 158° South 450 518 39,000  Level Oakland Center
Mon 09:32:59 AM 36.6303 -119.7214 158° South 470 541 39,000  Level Oakland Center
Mon 09:34:00 AM 36.4897 -119.6506 158° South 456 525 39,000  Level Oakland Center
Mon 09:35:01 AM 36.3703 -119.5914 158° South 459 528 39,000  Level Oakland Center
Mon 09:36:01 AM 36.2519 -119.5325 158° South 458 527 39,000  Level Oakland Center
Mon 09:37:02 AM 36.1314 -119.4744 159° South 462 532 39,000  Level Oakland Center
Mon 09:38:03 AM 36.0133 -119.4164 158° South 458 527 39,000  Level Oakland Center
Mon 09:39:03 AM 35.8972 -119.3631 160° South 450 518 39,000  Level Oakland Center
Mon 09:40:04 AM 35.7792 -119.3053 158° South 450 518 39,000  Level Oakland Center
Mon 09:41:05 AM 35.6594 -119.2469 158° South 457 526 39,000  Level Oakland Center
Mon 09:42:08 AM 35.5436 -119.1911 159° South 451 519 39,000  Level Los Angeles Center
Mon 09:43:10 AM 35.4281 -119.1361 159° South 448 516 39,000  Level Los Angeles Center
Mon 09:44:11 AM 35.3114 -119.0789 158° South 448 516 39,000  Level Los Angeles Center
Mon 09:45:12 AM 35.1942 -119.0225 159° South 449 517 39,000  Level Los Angeles Center
Mon 09:46:14 AM 35.0739 -118.9672 159° South 454 522 39,000  Level Los Angeles Center
Mon 09:47:15 AM 34.9325 -118.9011 159° South 453 521 39,000  Level Los Angeles Center
Mon 09:48:16 AM 34.8347 -118.8539 158° South 452 520 39,000  Level Los Angeles Center
Mon 09:49:18 AM 34.6944 -118.7883 159° South 451 519 39,000  Level Los Angeles Center
Mon 09:50:19 AM 34.5781 -118.7344 159° South 449 517 39,000  Level Los Angeles Center
Mon 09:51:21 AM 34.4703 -118.6561 149° Southeast 457 526 39,000  Level Los Angeles Center
Mon 09:52:22 AM 34.3667 -118.5689 145° Southeast 453 521 39,000  Level Los Angeles Center
Mon 09:53:24 AM 34.2631 -118.4825 145° Southeast 452 520 39,000  Level Los Angeles Center
Mon 09:54:25 AM 34.1575 -118.3950 146° Southeast 456 525 39,000 -49 Level Los Angeles Center
Mon 09:55:26 AM 34.0519 -118.3069 145° Southeast 459 528 38,900 -1,659 Descending Los Angeles Center
Mon 09:56:28 AM 33.9447 -118.2175 145° Southeast 462 532 35,600 -3,317 Descending Los Angeles Center
Mon 09:57:29 AM 33.8328 -118.1250 146° Southeast 476 548 32,100 -3,122 Descending Los Angeles Center
Mon 09:58:31 AM 33.7200 -118.0344 146° Southeast 479 551 29,200 -2,976 Descending Los Angeles Center
Mon 09:59:34 AM 33.5914 -117.9292 146° Southeast 463 533 25,900 -2,758 Descending Los Angeles Center
Mon 10:00:35 AM 33.4878 -117.8458 146° Southeast 449 517 23,500 -2,146 Descending Los Angeles Center
Mon 10:01:37 AM 33.4008 -117.7550 139° Southeast 416 479 21,500 -2,000 Descending Los Angeles Center
Mon 10:02:38 AM 33.3233 -117.6583 134° Southeast 404 465 19,400 -1,951 Descending Los Angeles Center
Mon 10:03:40 AM 33.2506 -117.5661 133° Southeast 392 451 17,500 -1,951 Descending Los Angeles Center
Mon 10:04:41 AM 33.1661 -117.4931 144° Southeast 380 437 15,400 -2,150 Descending Los Angeles Center
Mon 10:05:40 AM 33.0833 -117.4167 142° Southeast 352 405 13,200 -2,050 Descending Southern California TRACON
Mon 10:06:41 AM 33.0000 -117.3667 153° Southeast 346 398 11,300 -1,537 Descending Southern California TRACON
Mon 10:07:41 AM 32.9167 -117.3000 146° Southeast 317 365 10,100 -1,300 Descending Southern California TRACON
Mon 10:08:41 AM 32.8500 -117.2333 140° Southeast 307 353 8,700 -1,381 Descending Southern California TRACON
Mon 10:09:47 AM 32.8000 -117.1500 126° Southeast 301 346 7,200 -1,048 Descending Southern California TRACON
Mon 10:10:47 AM 32.7667 -117.0667 115° Southeast 271 312 6,500 -700 Descending Southern California TRACON
Mon 10:11:47 AM 32.7500 -117.0000 107° East 240 276 5,800 -750 Descending Southern California TRACON
Mon 10:12:47 AM 32.7000 -116.9500 140° Southeast 230 265 5,000 -950 Descending Southern California TRACON
Mon 10:13:47 AM 32.6833 -117.0167 253° West 196 226 3,900 -1,143 Descending Southern California TRACON
Mon 10:14:53 AM 32.7000 -117.0667 292° West 148 170 2,600 -1,150 Descending Southern California TRACON
Mon 10:15:47 AM 32.7167 -117.1000 301° West 134 154 1,600 -947 Descending Southern California TRACON
Mon 10:16:47 AM 32.7167 -117.1500 270° West 132 152 800 -672 Descending Southern California TRACON
Mon 10:18:01 AM 32.7322 -117.1894 295° West 130 150 100 -568 Descending Los Angeles Center
Mon 10:20:00 AM 32.7336 -117.1897 123° Southeast  Level Estimated

Login

Don't have an account? Register now (free) for customized features, flight alerts, and more!